Time;durP1;ratioP1;P1;durP2;ratioP2;P2;SDS_P1;SDS_P2;PMS_P1;PMS_P2;Temp;Humidity;BMP_temperature;BMP_pressure;BME280_temperature;BME280_humidity;BME280_pressure;Samples;Min_cycle;Max_cycle;Signal;HPM_P1;HPM_P2
2022/01/27 00:05:17;;;;;;;47.53;16.00;;;-0.90;99.90;;;;;;5131001;27;20419;-65
2022/01/27 00:07:43;;;;;;;37.63;15.10;;;-1.00;99.90;;;;;;5131277;27;20185;-64
2022/01/27 00:13:01;;;;;;;45.27;15.83;;;-1.10;99.90;;;;;;5113079;27;20473;-64
2022/01/27 00:15:32;;;;;;;43.77;16.20;;;-1.00;99.90;;;;;;5138945;27;20886;-64
2022/01/27 00:18:02;;;;;;;35.23;15.63;;;-1.00;99.90;;;;;;5140165;27;20218;-64
2022/01/27 00:20:28;;;;;;;41.20;16.47;;;-1.00;99.90;;;;;;5132458;27;20664;-64
2022/01/27 00:22:54;;;;;;;39.30;15.67;;;-1.00;99.90;;;;;;5131299;27;20473;-65
2022/01/27 00:25:20;;;;;;;36.70;13.43;;;-1.00;99.90;;;;;;5126748;27;21001;-65
2022/01/27 00:27:46;;;;;;;29.23;13.50;;;-1.00;99.90;;;;;;5135475;27;20191;-65
2022/01/27 00:30:12;;;;;;;42.73;16.40;;;-1.00;99.90;;;;;;5136141;27;20193;-65
2022/01/27 00:32:38;;;;;;;36.67;15.30;;;-1.00;99.90;;;;;;5134879;27;20618;-65
2022/01/27 00:35:05;;;;;;;48.40;15.67;;;-1.00;99.90;;;;;;5133692;27;20420;-65
2022/01/27 00:37:30;;;;;;;46.60;16.33;;;-1.00;99.90;;;;;;5132586;27;20198;-65
2022/01/27 00:39:56;;;;;;;32.10;14.10;;;-1.00;99.90;;;;;;5131086;27;20428;-64
2022/01/27 00:42:23;;;;;;;41.83;15.33;;;-1.00;99.90;;;;;;5134754;27;20218;-64
2022/01/27 00:44:49;;;;;;;32.47;12.80;;;-1.00;99.90;;;;;;5125807;27;20274;-64
2022/01/27 00:47:15;;;;;;;40.00;15.27;;;-1.00;99.90;;;;;;5135412;27;20861;-65
2022/01/27 00:49:41;;;;;;;37.77;16.23;;;-1.10;99.90;;;;;;5117751;27;20203;-65
2022/01/27 00:52:10;;;;;;;35.93;15.90;;;-1.20;99.90;;;;;;5137152;27;20859;-65
2022/01/27 00:54:36;;;;;;;41.10;14.80;;;-1.20;99.90;;;;;;5137989;27;20519;-64
2022/01/27 01:02:11;;;;;;;36.57;14.53;;;-1.30;99.90;;;;;;5128160;27;20446;-64
2022/01/27 01:04:41;;;;;;;33.80;16.53;;;-1.30;99.90;;;;;;5135337;27;20411;-64
2022/01/27 01:07:08;;;;;;;39.27;16.93;;;-1.40;99.90;;;;;;5133730;27;20530;-65
2022/01/27 01:13:07;;;;;;;55.07;16.43;;;-1.40;99.90;;;;;;5132846;27;20424;-64
2022/01/27 01:18:30;;;;;;;33.20;14.93;;;-1.40;99.90;;;;;;5134809;27;20428;-64
2022/01/27 01:20:33;;;;;;;46.10;17.13;;;-1.40;99.90;;;;;;5116887;27;20767;-64
2022/01/27 01:36:36;;;;;;;40.77;15.30;;;-1.50;99.90;;;;;;5127690;27;20477;-64
2022/01/27 01:39:06;;;;;;;34.00;15.27;;;-1.50;99.90;;;;;;5128852;27;20464;-64
2022/01/27 01:41:32;;;;;;;44.17;15.30;;;-1.60;99.90;;;;;;5137205;27;20530;-65
2022/01/27 01:43:58;;;;;;;39.07;15.33;;;-1.60;99.90;;;;;;5128385;27;20455;-65
2022/01/27 01:46:24;;;;;;;29.73;12.20;;;-1.60;99.90;;;;;;5131567;27;20463;-64
2022/01/27 01:48:50;;;;;;;31.87;12.07;;;-1.70;99.90;;;;;;5125443;27;20994;-65
2022/01/27 01:51:25;;;;;;;30.03;14.33;;;-1.60;99.90;;;;;;5121372;27;20224;-64
2022/01/27 01:53:50;;;;;;;28.43;13.00;;;-1.60;99.90;;;;;;5129757;27;20274;-64
2022/01/27 01:56:16;;;;;;;45.53;14.67;;;-1.60;99.90;;;;;;5142726;27;20534;-64
2022/01/27 01:58:42;;;;;;;32.97;14.70;;;-1.70;99.90;;;;;;5130289;27;20297;-64
2022/01/27 02:01:07;;;;;;;32.83;13.73;;;-1.60;99.90;;;;;;5130577;27;20189;-64
2022/01/27 02:03:33;;;;;;;45.30;14.83;;;-1.60;99.90;;;;;;5129670;27;20262;-64
2022/01/27 02:05:59;;;;;;;30.77;12.27;;;-1.60;99.90;;;;;;5124516;27;20627;-64
2022/01/27 02:08:37;;;;;;;31.67;14.30;;;-1.60;99.90;;;;;;5130670;27;20259;-64
2022/01/27 02:19:22;;;;;;;41.10;14.30;;;-1.70;99.90;;;;;;5131063;27;20477;-64
2022/01/27 02:21:59;;;;;;;38.00;12.93;;;-1.80;99.90;;;;;;5141295;27;20451;-64
2022/01/27 02:24:26;;;;;;;35.73;12.60;;;-1.80;99.90;;;;;;5130823;27;20417;-64
2022/01/27 02:26:52;;;;;;;31.63;13.37;;;-1.70;99.90;;;;;;5141031;27;20421;-64
2022/01/27 02:29:20;;;;;;;26.00;10.80;;;-1.80;99.90;;;;;;5134832;27;20432;-64
2022/01/27 02:31:47;;;;;;;24.27;10.63;;;-1.80;99.90;;;;;;5140680;27;20955;-64
2022/01/27 02:34:13;;;;;;;32.60;11.50;;;-1.90;99.90;;;;;;5129274;27;20424;-64
2022/01/27 02:36:39;;;;;;;30.90;11.93;;;-1.90;99.90;;;;;;5128735;27;20452;-64
2022/01/27 02:39:07;;;;;;;35.63;11.30;;;-2.00;99.90;;;;;;5129454;27;20219;-64
2022/01/27 02:41:50;;;;;;;28.40;13.23;;;-2.00;99.90;;;;;;5134961;27;20510;-64
2022/01/27 02:44:45;;;;;;;25.00;10.50;;;-1.90;99.90;;;;;;5128254;27;20412;-64
2022/01/27 02:47:11;;;;;;;30.67;12.47;;;-2.00;99.90;;;;;;5117288;27;20445;-64
2022/01/27 02:49:37;;;;;;;31.80;12.87;;;-2.00;99.90;;;;;;5128215;27;20862;-64
2022/01/27 02:52:03;;;;;;;26.07;12.10;;;-2.00;99.90;;;;;;5134469;27;20499;-64
2022/01/27 02:54:29;;;;;;;34.90;13.30;;;-2.00;99.90;;;;;;5123018;27;20183;-64
2022/01/27 02:56:54;;;;;;;35.40;13.33;;;-2.10;99.90;;;;;;5123242;27;20420;-64
2022/01/27 02:59:21;;;;;;;31.00;11.50;;;-2.00;99.90;;;;;;5133618;27;20215;-64
2022/01/27 03:01:50;;;;;;;31.07;13.63;;;-2.00;99.90;;;;;;5129363;27;20186;-64
2022/01/27 03:04:17;;;;;;;34.37;12.20;;;-2.10;99.90;;;;;;5129344;27;20416;-64
2022/01/27 03:06:44;;;;;;;39.77;13.77;;;-2.10;99.90;;;;;;5130807;27;20975;-64
2022/01/27 03:09:10;;;;;;;35.53;12.83;;;-2.10;99.90;;;;;;5135860;27;20433;-64
2022/01/27 03:11:47;;;;;;;40.30;15.77;;;-2.10;99.90;;;;;;5131339;27;20964;-64
2022/01/27 03:14:22;;;;;;;37.27;13.97;;;-2.00;99.90;;;;;;5130659;27;20420;-64
2022/01/27 03:16:48;;;;;;;35.40;13.53;;;-2.00;99.90;;;;;;5131866;27;20412;-64
2022/01/27 03:19:14;;;;;;;35.83;14.80;;;-2.00;99.90;;;;;;5131096;27;20583;-64
2022/01/27 03:21:40;;;;;;;30.50;13.70;;;-2.10;99.90;;;;;;5136193;27;20560;-64
2022/01/27 03:24:07;;;;;;;37.83;14.30;;;-2.10;99.90;;;;;;5135791;27;20530;-64
2022/01/27 03:26:33;;;;;;;38.77;14.60;;;-2.10;99.90;;;;;;5137825;27;20794;-64
2022/01/27 03:28:59;;;;;;;27.37;12.13;;;-2.20;99.90;;;;;;5133060;27;20449;-64
2022/01/27 03:31:26;;;;;;;30.27;12.73;;;-2.20;99.90;;;;;;5127047;27;20817;-64
2022/01/27 03:33:52;;;;;;;33.20;13.67;;;-2.20;99.90;;;;;;5128675;27;20221;-64
2022/01/27 03:36:18;;;;;;;35.23;13.73;;;-2.20;99.90;;;;;;5125719;27;20480;-65
2022/01/27 03:38:44;;;;;;;32.37;12.90;;;-2.20;99.90;;;;;;5126970;27;20230;-64
2022/01/27 03:41:10;;;;;;;38.40;13.73;;;-2.20;99.90;;;;;;5128729;27;20416;-64
2022/01/27 03:43:39;;;;;;;36.37;14.60;;;-2.10;99.90;;;;;;5128852;27;20972;-65
2022/01/27 03:46:06;;;;;;;37.40;13.70;;;-2.10;99.90;;;;;;5129774;27;20432;-65
2022/01/27 03:48:32;;;;;;;40.50;11.90;;;-2.10;99.90;;;;;;5131287;27;20793;-65
2022/01/27 03:50:58;;;;;;;33.53;12.57;;;-2.10;99.90;;;;;;5126632;27;20469;-65
2022/01/27 03:53:24;;;;;;;37.37;13.43;;;-2.10;99.90;;;;;;5117815;27;20439;-65
2022/01/27 03:55:50;;;;;;;38.13;14.83;;;-2.10;99.90;;;;;;5132599;27;20423;-65
2022/01/27 03:58:16;;;;;;;29.90;12.67;;;-2.10;99.90;;;;;;5138223;27;20737;-65
2022/01/27 04:00:42;;;;;;;32.60;13.60;;;-2.20;99.90;;;;;;5127401;27;20433;-65
2022/01/27 04:03:10;;;;;;;28.13;13.77;;;-2.20;99.90;;;;;;5128571;27;20216;-65
2022/01/27 04:05:45;;;;;;;32.50;13.20;;;-2.20;99.90;;;;;;5128545;27;20584;-65
2022/01/27 04:08:13;;;;;;;34.33;13.77;;;-2.20;99.90;;;;;;5129538;27;20438;-65
2022/01/27 04:10:39;;;;;;;30.83;14.27;;;-2.20;99.90;;;;;;5126761;27;20437;-64
2022/01/27 04:13:07;;;;;;;29.60;12.00;;;-2.20;99.90;;;;;;5130362;27;20687;-65
2022/01/27 04:15:34;;;;;;;39.90;15.03;;;-2.20;99.90;;;;;;5125972;28;20908;-65
2022/01/27 04:17:59;;;;;;;29.90;12.90;;;-2.20;99.90;;;;;;5130439;27;20455;-65
2022/01/27 04:20:25;;;;;;;32.57;14.77;;;-2.30;99.90;;;;;;5130037;27;20424;-65
2022/01/27 04:22:51;;;;;;;33.27;13.20;;;-2.20;99.90;;;;;;5132303;27;20254;-65
2022/01/27 04:25:17;;;;;;;31.60;13.00;;;-2.20;99.90;;;;;;5137973;27;20572;-65
2022/01/27 04:27:50;;;;;;;43.03;13.77;;;-2.30;99.90;;;;;;5133526;27;20557;-65
2022/01/27 04:30:18;;;;;;;39.30;15.13;;;-2.30;99.90;;;;;;5131731;27;20182;-64
2022/01/27 04:32:51;;;;;;;39.17;14.40;;;-2.30;99.90;;;;;;5131417;27;20420;-64
2022/01/27 04:35:19;;;;;;;37.33;14.63;;;-2.30;99.90;;;;;;5124935;27;20765;-65
2022/01/27 04:40:36;;;;;;;30.07;13.47;;;-2.30;99.90;;;;;;5123903;27;20449;-65
2022/01/27 04:43:22;;;;;;;36.80;12.93;;;-2.40;99.90;;;;;;5128837;27;20460;-64
2022/01/27 04:48:30;;;;;;;30.33;12.97;;;-2.40;99.90;;;;;;5132522;27;20415;-65
2022/01/27 04:51:04;;;;;;;32.13;13.27;;;-2.40;99.90;;;;;;5130234;27;20424;-65
2022/01/27 04:53:37;;;;;;;28.93;12.60;;;-2.30;99.90;;;;;;5134387;27;20431;-64
2022/01/27 04:56:03;;;;;;;32.10;13.87;;;-2.40;99.90;;;;;;5130820;27;20512;-64
2022/01/27 04:58:32;;;;;;;45.33;12.03;;;-2.40;99.90;;;;;;5139057;27;20504;-64
2022/01/27 05:01:02;;;;;;;34.53;13.53;;;-2.30;99.90;;;;;;5136571;27;21228;-65
2022/01/27 05:03:48;;;;;;;31.40;13.50;;;-2.40;99.90;;;;;;5129761;27;20416;-65
2022/01/27 05:06:13;;;;;;;32.00;13.80;;;-2.40;99.90;;;;;;5130602;27;20408;-64
2022/01/27 05:08:41;;;;;;;35.27;13.03;;;-2.40;99.90;;;;;;5132799;27;20427;-64
2022/01/27 05:11:23;;;;;;;31.27;12.50;;;-2.30;99.90;;;;;;5133008;27;20255;-64
2022/01/27 05:14:04;;;;;;;37.33;14.10;;;-2.30;99.90;;;;;;5131185;27;20635;-64
2022/01/27 05:16:30;;;;;;;25.77;12.00;;;-2.30;99.90;;;;;;5130035;27;20400;-64
2022/01/27 05:18:56;;;;;;;28.27;11.70;;;-2.30;99.90;;;;;;5132114;27;20944;-64
2022/01/27 05:21:22;;;;;;;47.83;13.63;;;-2.30;99.90;;;;;;5130830;27;20653;-64
2022/01/27 05:23:48;;;;;;;36.10;13.50;;;-2.30;99.90;;;;;;5134332;27;20404;-65
2022/01/27 05:26:14;;;;;;;38.67;14.17;;;-2.40;99.90;;;;;;5134844;27;20431;-65
2022/01/27 05:28:39;;;;;;;41.50;12.80;;;-2.30;99.90;;;;;;5134639;27;20220;-64
2022/01/27 05:31:05;;;;;;;44.40;12.60;;;-2.30;99.90;;;;;;5134760;27;20440;-64
2022/01/27 05:33:32;;;;;;;30.87;14.47;;;-2.30;99.90;;;;;;5130694;27;20529;-64
2022/01/27 05:35:58;;;;;;;35.60;14.33;;;-2.30;99.90;;;;;;5134133;27;20209;-65
2022/01/27 05:38:24;;;;;;;30.17;13.47;;;-2.40;99.90;;;;;;5127870;27;20470;-65
2022/01/27 05:40:50;;;;;;;35.80;12.63;;;-2.40;99.90;;;;;;5128110;27;20428;-65
2022/01/27 05:43:16;;;;;;;32.97;14.60;;;-2.40;99.90;;;;;;5129776;27;20187;-65
2022/01/27 05:45:41;;;;;;;35.77;12.70;;;-2.40;99.90;;;;;;5131488;27;20214;-65
2022/01/27 05:48:07;;;;;;;32.00;12.33;;;-2.40;99.90;;;;;;5129580;27;20877;-65
2022/01/27 05:50:34;;;;;;;36.80;14.50;;;-2.40;99.90;;;;;;5138375;27;20196;-65
2022/01/27 05:53:00;;;;;;;48.20;15.00;;;-2.50;99.90;;;;;;5134375;27;20197;-65
2022/01/27 05:55:25;;;;;;;35.93;13.33;;;-2.50;99.90;;;;;;5129647;27;20758;-65
2022/01/27 05:57:51;;;;;;;34.27;13.20;;;-2.50;99.90;;;;;;5130432;27;20186;-65
2022/01/27 06:00:17;;;;;;;45.80;16.93;;;-2.40;99.90;;;;;;5129943;27;20181;-65
2022/01/27 06:02:43;;;;;;;35.47;13.50;;;-2.40;99.90;;;;;;5129146;27;20657;-65
2022/01/27 06:05:09;;;;;;;45.53;16.20;;;-2.40;99.90;;;;;;5124321;27;20424;-65
2022/01/27 06:07:35;;;;;;;32.80;12.77;;;-2.40;99.90;;;;;;5130798;27;20197;-65
2022/01/27 06:10:01;;;;;;;26.70;12.37;;;-2.50;99.90;;;;;;5134767;27;20416;-65
2022/01/27 06:12:26;;;;;;;44.20;14.67;;;-2.50;99.90;;;;;;5132819;27;20212;-65
2022/01/27 06:14:52;;;;;;;36.67;15.20;;;-2.60;99.90;;;;;;5130569;27;20174;-65
2022/01/27 06:17:18;;;;;;;31.10;12.90;;;-2.60;99.90;;;;;;5126116;27;20183;-65
2022/01/27 06:19:44;;;;;;;43.70;14.20;;;-2.60;99.90;;;;;;5126926;27;20207;-65
2022/01/27 06:22:12;;;;;;;37.37;13.90;;;-2.70;99.90;;;;;;5131447;27;20227;-65
2022/01/27 06:24:39;;;;;;;50.03;17.47;;;-2.70;99.90;;;;;;5139230;27;20425;-65
2022/01/27 06:27:05;;;;;;;35.77;14.77;;;-2.70;99.90;;;;;;5132177;27;20416;-65
2022/01/27 06:29:31;;;;;;;42.47;15.70;;;-2.70;99.90;;;;;;5134905;27;20421;-65
2022/01/27 06:31:56;;;;;;;36.53;14.70;;;-2.70;99.90;;;;;;5133711;27;20592;-66
2022/01/27 06:34:22;;;;;;;31.97;11.50;;;-2.70;99.90;;;;;;5131801;27;20219;-65
2022/01/27 06:36:48;;;;;;;39.47;13.57;;;-2.70;99.90;;;;;;5132038;27;20305;-65
2022/01/27 06:39:13;;;;;;;41.00;13.70;;;-2.70;99.90;;;;;;5131885;27;20330;-65
2022/01/27 06:41:39;;;;;;;45.27;15.40;;;-2.70;99.90;;;;;;5131291;27;20183;-65
2022/01/27 06:44:05;;;;;;;44.50;14.10;;;-2.70;99.90;;;;;;5127392;27;20190;-65
2022/01/27 06:46:32;;;;;;;34.60;13.87;;;-2.70;99.90;;;;;;5128097;27;20174;-65
2022/01/27 06:48:58;;;;;;;36.73;15.47;;;-2.70;99.90;;;;;;5133350;27;20507;-66
2022/01/27 06:51:26;;;;;;;37.23;14.57;;;-2.70;99.90;;;;;;5131941;27;20822;-66
2022/01/27 06:53:52;;;;;;;39.80;13.17;;;-2.70;99.90;;;;;;5124113;27;20181;-66
2022/01/27 06:56:17;;;;;;;41.70;15.00;;;-2.60;99.90;;;;;;5133493;27;20506;-66
2022/01/27 06:58:43;;;;;;;41.57;14.53;;;-2.70;99.90;;;;;;5131037;27;20233;-66
2022/01/27 07:01:08;;;;;;;33.23;12.07;;;-2.70;99.90;;;;;;5132316;27;20210;-66
2022/01/27 07:03:34;;;;;;;30.70;13.10;;;-2.70;99.90;;;;;;5125794;27;20183;-66
2022/01/27 07:06:00;;;;;;;45.53;15.03;;;-2.70;99.90;;;;;;5129939;27;20170;-66
2022/01/27 07:08:25;;;;;;;40.53;14.47;;;-2.70;99.90;;;;;;5127711;27;20643;-65
2022/01/27 07:10:51;;;;;;;38.77;15.03;;;-2.70;99.90;;;;;;5126302;27;20193;-65
2022/01/27 07:13:16;;;;;;;40.43;15.67;;;-2.70;99.90;;;;;;5130028;27;20505;-65
2022/01/27 07:15:42;;;;;;;44.47;16.00;;;-2.60;99.90;;;;;;5133981;27;20178;-65
2022/01/27 07:18:08;;;;;;;40.73;16.33;;;-2.70;99.90;;;;;;5127663;27;20586;-66
2022/01/27 07:20:34;;;;;;;37.93;14.73;;;-2.70;99.90;;;;;;5137801;27;20185;-66
2022/01/27 07:22:59;;;;;;;36.50;14.57;;;-2.70;99.90;;;;;;5127965;27;20509;-66
2022/01/27 07:25:25;;;;;;;41.67;16.83;;;-2.70;99.90;;;;;;5134244;27;20178;-66
2022/01/27 07:27:51;;;;;;;29.83;13.50;;;-2.70;99.90;;;;;;5133893;27;20171;-66
2022/01/27 07:30:17;;;;;;;41.63;14.30;;;-2.70;99.90;;;;;;5124029;27;20183;-66
2022/01/27 07:32:42;;;;;;;48.30;16.90;;;-2.60;99.90;;;;;;5132546;27;20428;-65
2022/01/27 07:35:08;;;;;;;38.43;12.90;;;-2.60;99.90;;;;;;5128078;27;20248;-66
2022/01/27 07:37:34;;;;;;;34.33;14.57;;;-2.60;99.90;;;;;;5125272;27;20195;-66
2022/01/27 07:39:59;;;;;;;39.07;13.70;;;-2.60;99.90;;;;;;5123248;27;20213;-65
2022/01/27 07:42:26;;;;;;;31.13;14.33;;;-2.60;99.90;;;;;;5129485;27;20223;-65
2022/01/27 07:44:52;;;;;;;41.13;13.87;;;-2.60;99.90;;;;;;5132045;27;20988;-66
2022/01/27 07:47:17;;;;;;;31.77;12.20;;;-2.60;99.90;;;;;;5133525;27;20186;-65
2022/01/27 07:49:43;;;;;;;31.13;12.80;;;-2.60;99.90;;;;;;5131391;27;20577;-65
2022/01/27 07:52:08;;;;;;;32.73;12.43;;;-2.60;99.90;;;;;;5131947;27;20190;-65
2022/01/27 07:54:34;;;;;;;37.57;14.50;;;-2.60;99.90;;;;;;5128564;27;20183;-65
2022/01/27 07:57:00;;;;;;;35.50;15.70;;;-2.50;99.90;;;;;;5137612;27;20535;-65
2022/01/27 07:59:25;;;;;;;41.23;15.60;;;-2.50;99.90;;;;;;5129853;27;20271;-65
2022/01/27 08:01:51;;;;;;;42.17;13.70;;;-2.50;99.90;;;;;;5128605;27;20255;-65
2022/01/27 08:04:16;;;;;;;37.27;11.57;;;-2.40;99.90;;;;;;5124588;27;20352;-65
2022/01/27 08:06:42;;;;;;;38.07;13.13;;;-2.40;99.90;;;;;;5130044;27;20602;-65
2022/01/27 08:09:08;;;;;;;27.73;12.83;;;-2.40;99.90;;;;;;5130903;27;20186;-65
2022/01/27 08:11:33;;;;;;;35.40;11.90;;;-2.40;99.90;;;;;;5136652;27;20277;-66
2022/01/27 08:13:59;;;;;;;35.90;14.27;;;-2.30;99.90;;;;;;5135321;27;20251;-66
2022/01/27 08:16:25;;;;;;;34.80;12.83;;;-2.40;99.90;;;;;;5127996;27;20270;-66
2022/01/27 08:18:50;;;;;;;31.90;12.90;;;-2.40;99.90;;;;;;5136548;27;20217;-66
2022/01/27 08:21:16;;;;;;;39.33;12.43;;;-2.30;99.90;;;;;;5137336;27;20178;-66
2022/01/27 08:23:43;;;;;;;45.00;14.03;;;-2.20;99.90;;;;;;5138101;27;20635;-66
2022/01/27 08:26:12;;;;;;;38.67;14.23;;;-2.20;99.90;;;;;;5138381;27;20223;-66
2022/01/27 08:28:57;;;;;;;32.53;12.73;;;-2.10;99.90;;;;;;5131014;27;20484;-66
2022/01/27 08:31:32;;;;;;;32.33;12.40;;;-2.10;99.90;;;;;;5131779;27;20557;-66
2022/01/27 08:34:02;;;;;;;29.53;10.80;;;-2.00;99.90;;;;;;5128317;27;20411;-66
2022/01/27 08:36:28;;;;;;;34.10;14.33;;;-2.00;99.90;;;;;;5134520;27;20447;-66
2022/01/27 08:38:54;;;;;;;50.27;18.77;;;-1.90;99.90;;;;;;5132014;27;20520;-66
2022/01/27 08:41:19;;;;;;;45.27;17.57;;;-1.90;99.90;;;;;;5130034;27;20208;-66
2022/01/27 08:43:46;;;;;;;33.10;13.07;;;-1.90;99.90;;;;;;5126756;27;20180;-66
2022/01/27 08:46:12;;;;;;;40.43;13.83;;;-1.90;99.90;;;;;;5133311;27;20696;-66
2022/01/27 08:48:41;;;;;;;39.50;12.37;;;-1.90;99.90;;;;;;5137216;27;20444;-66
2022/01/27 08:51:10;;;;;;;38.93;14.70;;;-1.80;99.90;;;;;;5133944;27;20435;-66
2022/01/27 08:53:37;;;;;;;28.23;11.97;;;-1.80;99.90;;;;;;5137279;27;20426;-66
2022/01/27 08:56:03;;;;;;;30.93;11.60;;;-1.80;99.90;;;;;;5130917;27;20459;-66
2022/01/27 08:58:31;;;;;;;25.60;11.50;;;-1.80;99.90;;;;;;5132713;27;20479;-66
2022/01/27 09:00:57;;;;;;;34.17;12.57;;;-1.70;99.90;;;;;;5135165;27;20445;-65
2022/01/27 09:03:23;;;;;;;28.73;12.33;;;-1.70;99.90;;;;;;5134149;27;20481;-66
2022/01/27 09:05:48;;;;;;;27.40;11.67;;;-1.70;99.90;;;;;;5132816;27;20932;-65
2022/01/27 09:08:14;;;;;;;20.53;11.40;;;-1.70;99.90;;;;;;5134511;27;20187;-66
2022/01/27 09:10:41;;;;;;;32.13;11.30;;;-1.70;99.90;;;;;;5116139;27;20217;-65
2022/01/27 09:13:07;;;;;;;32.23;10.77;;;-1.60;99.90;;;;;;5137742;27;20211;-65
2022/01/27 09:15:33;;;;;;;27.80;10.63;;;-1.60;99.90;;;;;;5141084;27;20963;-65
2022/01/27 09:18:00;;;;;;;31.17;12.13;;;-1.60;99.90;;;;;;5141245;27;20456;-65
2022/01/27 09:20:26;;;;;;;26.13;11.17;;;-1.50;99.90;;;;;;5139536;27;20470;-65
2022/01/27 09:22:53;;;;;;;22.57;9.77;;;-1.50;99.90;;;;;;5138334;27;20821;-66
2022/01/27 09:25:29;;;;;;;27.37;10.70;;;-1.40;99.90;;;;;;5133475;27;20618;-65
2022/01/27 09:27:56;;;;;;;19.47;8.40;;;-1.30;99.90;;;;;;5132647;27;20601;-64
2022/01/27 09:30:22;;;;;;;18.60;8.00;;;-1.30;99.90;;;;;;5138922;27;20530;-65
2022/01/27 09:32:48;;;;;;;22.53;10.57;;;-1.30;99.90;;;;;;5126616;27;20488;-65
2022/01/27 09:35:14;;;;;;;24.80;9.27;;;-1.30;99.90;;;;;;5129921;27;20265;-65
2022/01/27 09:37:40;;;;;;;31.73;11.07;;;-1.30;99.90;;;;;;5130426;27;20482;-66
2022/01/27 09:40:07;;;;;;;29.40;10.33;;;-1.40;99.90;;;;;;5100866;27;20594;-66
2022/01/27 09:42:35;;;;;;;26.33;10.40;;;-1.30;99.90;;;;;;5124776;27;20285;-65
2022/01/27 09:45:04;;;;;;;28.87;10.80;;;-1.30;99.90;;;;;;5127412;27;20447;-65
2022/01/27 09:47:32;;;;;;;28.20;10.20;;;-1.30;99.90;;;;;;5129677;27;20962;-66
2022/01/27 09:52:39;;;;;;;26.30;11.50;;;-1.20;99.90;;;;;;5128211;27;20438;-67
2022/01/27 09:55:05;;;;;;;20.20;8.70;;;-1.20;99.90;;;;;;5129833;27;20725;-68
2022/01/27 09:57:31;;;;;;;25.53;10.60;;;-1.10;99.90;;;;;;5130186;27;20236;-66
2022/01/27 09:59:57;;;;;;;26.50;9.07;;;-1.10;99.90;;;;;;5135812;27;20896;-66
2022/01/27 10:02:22;;;;;;;21.83;9.53;;;-0.90;99.90;;;;;;5134962;27;20209;-66
2022/01/27 10:04:49;;;;;;;36.40;10.17;;;-0.70;99.90;;;;;;5133845;27;20691;-66
2022/01/27 10:07:31;;;;;;;27.37;10.80;;;-0.70;99.90;;;;;;5134004;27;20219;-66
2022/01/27 10:10:01;;;;;;;24.40;9.67;;;-0.60;99.90;;;;;;5126934;27;20523;-66
2022/01/27 10:12:35;;;;;;;23.20;10.17;;;-0.60;99.90;;;;;;5125735;27;20947;-66
2022/01/27 10:15:20;;;;;;;23.33;9.50;;;-0.50;99.90;;;;;;5130829;27;20454;-66
2022/01/27 10:18:10;;;;;;;24.83;9.70;;;-0.50;99.90;;;;;;5129160;27;20443;-66
2022/01/27 10:20:39;;;;;;;29.80;10.80;;;-0.40;99.90;;;;;;5124341;27;20464;-66
2022/01/27 10:23:31;;;;;;;28.63;10.20;;;-0.30;99.90;;;;;;5119859;27;20417;-66
2022/01/27 10:26:07;;;;;;;19.77;10.03;;;0.10;99.90;;;;;;5127600;27;20408;-66
2022/01/27 10:28:37;;;;;;;22.00;7.40;;;0.40;99.90;;;;;;5125421;27;20416;-66
2022/01/27 10:31:09;;;;;;;24.37;8.63;;;0.50;99.90;;;;;;5125663;27;20683;-66
2022/01/27 10:33:51;;;;;;;21.30;8.33;;;0.50;99.90;;;;;;5129486;27;20416;-66
2022/01/27 10:36:22;;;;;;;24.60;9.63;;;0.50;99.90;;;;;;5131258;27;20955;-66
2022/01/27 10:38:50;;;;;;;24.23;8.97;;;0.50;99.90;;;;;;5128010;27;20559;-66
2022/01/27 10:41:16;;;;;;;27.83;8.50;;;0.50;99.90;;;;;;5131939;27;20433;-66
2022/01/27 10:43:41;;;;;;;24.77;9.03;;;0.60;99.90;;;;;;5132125;27;20417;-66
2022/01/27 10:46:27;;;;;;;22.03;7.73;;;0.50;99.90;;;;;;5130390;27;20183;-66
2022/01/27 10:49:06;;;;;;;19.03;8.70;;;0.70;99.90;;;;;;5130522;27;20187;-66
2022/01/27 10:51:43;;;;;;;15.77;7.87;;;0.60;99.90;;;;;;5129459;27;20454;-66
2022/01/27 10:54:20;;;;;;;17.90;7.83;;;0.50;99.90;;;;;;5129539;27;20436;-66
2022/01/27 10:56:47;;;;;;;21.70;9.63;;;0.50;99.90;;;;;;5132713;27;20436;-66
2022/01/27 10:59:15;;;;;;;14.43;7.90;;;0.50;99.90;;;;;;5127221;27;20456;-66
2022/01/27 11:01:43;;;;;;;14.30;6.90;;;0.40;99.90;;;;;;5127246;27;20438;-66
2022/01/27 11:04:11;;;;;;;18.20;8.70;;;0.40;99.90;;;;;;5125551;27;20927;-66
2022/01/27 11:06:53;;;;;;;21.93;8.80;;;0.40;99.90;;;;;;5131101;27;20466;-66
2022/01/27 11:09:20;;;;;;;18.30;7.83;;;0.40;99.90;;;;;;5131628;27;20443;-66
2022/01/27 11:11:48;;;;;;;25.10;9.53;;;0.50;99.90;;;;;;5131189;27;20417;-66
2022/01/27 11:14:14;;;;;;;23.53;8.63;;;0.50;99.90;;;;;;5129294;27;20573;-66
2022/01/27 11:16:43;;;;;;;23.70;9.27;;;0.60;99.90;;;;;;5130782;27;20932;-66
2022/01/27 11:22:08;;;;;;;13.73;7.37;;;0.60;99.90;;;;;;5098538;27;20408;-66
2022/01/27 11:25:07;;;;;;;20.33;8.60;;;0.70;99.90;;;;;;5133747;27;20420;-66
2022/01/27 11:27:36;;;;;;;18.73;8.00;;;0.60;99.90;;;;;;5131099;27;20936;-66
2022/01/27 11:30:25;;;;;;;23.07;7.50;;;0.70;99.90;;;;;;5126248;27;20542;-65
2022/01/27 11:32:53;;;;;;;21.17;8.37;;;0.70;99.90;;;;;;5124647;27;20822;-65
2022/01/27 11:35:24;;;;;;;15.33;7.20;;;0.70;99.90;;;;;;5132217;27;20420;-65
2022/01/27 11:37:52;;;;;;;18.10;7.90;;;0.70;99.90;;;;;;5124900;27;20863;-65
2022/01/27 11:40:20;;;;;;;16.90;8.10;;;0.60;99.90;;;;;;5123116;27;20532;-65
2022/01/27 11:42:54;;;;;;;17.47;6.60;;;0.70;99.90;;;;;;5121016;27;20499;-65
2022/01/27 11:45:23;;;;;;;16.90;7.40;;;0.60;99.90;;;;;;5124453;27;20432;-65
2022/01/27 11:47:49;;;;;;;18.53;7.10;;;0.70;99.90;;;;;;5126180;27;20864;-65
2022/01/27 11:50:32;;;;;;;14.40;6.30;;;0.60;99.90;;;;;;5126449;27;20846;-65
2022/01/27 11:53:00;;;;;;;22.73;8.13;;;0.60;99.90;;;;;;5126824;27;20416;-65
2022/01/27 11:55:26;;;;;;;21.90;8.27;;;0.70;99.90;;;;;;5125911;27;20416;-65
2022/01/27 11:57:57;;;;;;;22.00;8.30;;;0.70;99.90;;;;;;5129267;27;20430;-66
2022/01/27 12:00:27;;;;;;;17.10;7.50;;;0.80;99.90;;;;;;5127113;27;20662;-66
2022/01/27 12:02:56;;;;;;;14.87;6.93;;;0.80;99.90;;;;;;5121398;27;20447;-66
2022/01/27 12:05:26;;;;;;;19.63;8.43;;;0.80;99.90;;;;;;5131804;27;20968;-66
2022/01/27 12:08:12;;;;;;;18.50;8.43;;;0.80;99.90;;;;;;5133825;27;20424;-66
2022/01/27 12:10:44;;;;;;;19.27;7.90;;;0.90;99.90;;;;;;5138519;27;20807;-65
2022/01/27 12:13:26;;;;;;;20.73;8.87;;;0.90;99.90;;;;;;5134325;27;20465;-66
2022/01/27 12:19:00;;;;;;;19.50;8.20;;;0.90;99.90;;;;;;5125460;27;20560;-66
2022/01/27 12:21:35;;;;;;;20.30;7.27;;;1.00;99.90;;;;;;5132814;27;20934;-66
2022/01/27 12:24:13;;;;;;;28.00;8.40;;;1.00;99.90;;;;;;5135044;27;20526;-66
2022/01/27 12:26:54;;;;;;;21.00;7.33;;;1.00;99.90;;;;;;5131300;27;20918;-66
2022/01/27 12:29:40;;;;;;;24.47;8.40;;;1.00;99.90;;;;;;5132302;27;20416;-66
2022/01/27 12:32:18;;;;;;;20.93;7.43;;;1.10;99.90;;;;;;5127611;27;20536;-66
2022/01/27 12:34:49;;;;;;;19.57;7.03;;;1.10;99.90;;;;;;5134533;27;20466;-66
2022/01/27 12:37:18;;;;;;;30.63;9.93;;;1.20;99.90;;;;;;5127330;27;20490;-66
2022/01/27 12:39:55;;;;;;;25.40;9.40;;;1.30;99.90;;;;;;5135526;27;20834;-66
2022/01/27 12:42:26;;;;;;;23.33;9.40;;;1.30;99.90;;;;;;5134570;27;20408;-66
2022/01/27 12:44:57;;;;;;;19.80;8.30;;;1.30;99.90;;;;;;5135132;27;20915;-66
2022/01/27 12:47:23;;;;;;;20.03;8.50;;;1.40;99.90;;;;;;5133642;27;20509;-66
2022/01/27 12:50:01;;;;;;;16.03;7.20;;;1.40;99.90;;;;;;5130865;27;20595;-68
2022/01/27 12:52:29;;;;;;;23.90;9.30;;;1.50;99.90;;;;;;5130533;27;20460;-67
2022/01/27 12:54:55;;;;;;;19.10;8.67;;;1.40;99.90;;;;;;5129889;27;20522;-67
2022/01/27 12:57:27;;;;;;;14.77;7.53;;;1.50;99.90;;;;;;5127379;27;20420;-67
2022/01/27 12:59:54;;;;;;;28.83;10.20;;;1.60;99.90;;;;;;5128385;27;20203;-67
2022/01/27 13:02:22;;;;;;;40.13;23.57;;;1.60;99.90;;;;;;5130834;27;20499;-67
2022/01/27 13:04:49;;;;;;;29.30;13.87;;;1.70;99.90;;;;;;5130786;27;20496;-67
2022/01/27 13:07:15;;;;;;;21.57;7.67;;;1.90;99.90;;;;;;5136122;27;20419;-67
2022/01/27 13:09:43;;;;;;;18.00;9.73;;;1.90;99.90;;;;;;5126188;27;20425;-68
2022/01/27 13:12:15;;;;;;;13.83;6.80;;;2.00;99.90;;;;;;5133583;27;20411;-67
2022/01/27 13:14:52;;;;;;;16.77;7.03;;;2.00;99.90;;;;;;5129697;27;20427;-67
2022/01/27 13:17:24;;;;;;;24.43;9.73;;;1.90;99.90;;;;;;5132733;27;20947;-67
2022/01/27 13:19:57;;;;;;;22.17;8.40;;;1.90;99.90;;;;;;5129210;27;20476;-67
2022/01/27 13:22:34;;;;;;;19.10;8.50;;;2.00;99.90;;;;;;5129657;27;20417;-67
2022/01/27 13:25:01;;;;;;;28.07;11.67;;;2.10;99.90;;;;;;5129710;27;20977;-67
2022/01/27 13:27:27;;;;;;;17.63;6.83;;;2.10;99.90;;;;;;5130601;27;20416;-67
2022/01/27 13:29:57;;;;;;;16.63;8.03;;;2.10;99.90;;;;;;5128232;27;20423;-67
2022/01/27 13:32:24;;;;;;;23.23;9.13;;;2.20;99.90;;;;;;5130453;27;20207;-67